createdAt,value
2022-08-11T00:05:02.041Z,13.6
2022-08-11T00:11:02.013Z,13.4
2022-08-11T00:17:02.001Z,13
2022-08-11T00:23:01.993Z,13.1
2022-08-11T00:29:01.997Z,13.1
2022-08-11T00:35:52.012Z,13.1
2022-08-11T00:41:02.020Z,13.1
2022-08-11T00:47:02.002Z,12.9
2022-08-11T00:53:02.006Z,12.8
2022-08-11T00:59:02.009Z,12.7
2022-08-11T01:05:02.004Z,12.5
2022-08-11T01:11:02.010Z,12.5
2022-08-11T01:17:02.011Z,12.6
2022-08-11T01:23:02.015Z,12.5
2022-08-11T01:29:02.009Z,12.4
2022-08-11T01:35:02.017Z,12.4
2022-08-11T01:41:02.030Z,12.5
2022-08-11T01:47:02.022Z,12.4
2022-08-11T01:53:02.003Z,12.3
2022-08-11T01:59:02.016Z,12.2
2022-08-11T02:05:02.027Z,12.2
2022-08-11T02:11:02.053Z,12.2
2022-08-11T02:17:02.087Z,12.2
2022-08-11T02:23:02.056Z,12.2
2022-08-11T02:29:02.015Z,12.3
2022-08-11T02:35:02.031Z,12.3
2022-08-11T02:41:02.040Z,12.4
2022-08-11T02:47:02.016Z,12.3
2022-08-11T02:53:02.034Z,12.2
2022-08-11T02:59:02.022Z,12
2022-08-11T03:05:02.025Z,12.1
2022-08-11T03:11:02.063Z,12
2022-08-11T03:17:02.046Z,11.9
2022-08-11T03:23:02.050Z,11.9
2022-08-11T03:29:02.046Z,11.9
2022-08-11T03:35:02.032Z,12
2022-08-11T03:41:02.065Z,12
2022-08-11T03:47:02.033Z,11.9
2022-08-11T03:53:02.034Z,11.9
2022-08-11T03:59:02.040Z,11.6
2022-08-11T04:05:02.066Z,11.5
2022-08-11T04:11:02.052Z,11.5
2022-08-11T04:17:02.035Z,11.6
2022-08-11T04:23:02.061Z,11.6
2022-08-11T04:29:02.033Z,11.5
2022-08-11T04:35:02.091Z,11.5
2022-08-11T04:41:02.061Z,11.4
2022-08-11T04:47:02.057Z,11.4
2022-08-11T04:53:02.064Z,11.4
2022-08-11T04:59:02.056Z,11.5
2022-08-11T05:05:02.052Z,11.5
2022-08-11T05:11:02.060Z,11.6
2022-08-11T05:17:02.109Z,11.7
2022-08-11T05:23:02.287Z,11.8
2022-08-11T05:29:19.381Z,11.8
2022-08-11T05:35:02.071Z,11.9
2022-08-11T05:41:02.124Z,12
2022-08-11T05:47:02.151Z,12
2022-08-11T05:53:02.080Z,12
2022-08-11T05:59:02.065Z,12
2022-08-11T06:05:02.064Z,12.1
2022-08-11T06:11:02.066Z,12.3
2022-08-11T06:17:02.066Z,12.7
2022-08-11T06:23:02.081Z,13
2022-08-11T06:29:02.086Z,13.3
2022-08-11T06:35:02.075Z,13.4
2022-08-11T06:41:02.092Z,13.7
2022-08-11T06:47:02.097Z,14.3
2022-08-11T06:53:02.079Z,15.6
2022-08-11T06:59:02.082Z,19.5
2022-08-11T07:05:02.107Z,21.8
2022-08-11T07:11:02.074Z,22.4
2022-08-11T07:17:02.081Z,23.4
2022-08-11T07:23:02.122Z,25
2022-08-11T07:29:02.090Z,25.3
2022-08-11T07:35:02.091Z,25.7
2022-08-11T07:41:02.113Z,25.2
2022-08-11T07:47:02.102Z,26.9
2022-08-11T07:53:02.108Z,27
2022-08-11T07:59:06.240Z,28.7
2022-08-11T08:05:02.100Z,29.7
2022-08-11T08:11:02.118Z,29
2022-08-11T08:17:02.112Z,28.5
2022-08-11T08:23:02.139Z,29.6
2022-08-11T08:29:02.110Z,29.7
2022-08-11T08:35:02.167Z,28.9
2022-08-11T08:41:02.128Z,28.9
2022-08-11T08:47:02.176Z,30.7
2022-08-11T08:53:02.144Z,30.9
2022-08-11T08:59:02.178Z,33
2022-08-11T09:05:02.143Z,32
2022-08-11T09:11:02.176Z,32.3
2022-08-11T09:17:02.136Z,31.4
2022-08-11T09:29:02.179Z,32.2
2022-08-11T09:35:02.146Z,32.3
2022-08-11T09:41:02.154Z,32.2
2022-08-11T09:47:02.180Z,31.4
2022-08-11T09:53:37.332Z,32
2022-08-11T09:59:02.161Z,32.1
2022-08-11T10:05:02.169Z,32.3
2022-08-11T10:11:02.175Z,30.8
2022-08-11T10:17:02.175Z,32.6
2022-08-11T10:23:02.182Z,31.9
2022-08-11T10:29:12.955Z,29.7
2022-08-11T10:35:02.174Z,30.1
2022-08-11T10:41:02.409Z,30.9
2022-08-11T10:47:02.195Z,31.2
2022-08-11T10:53:02.206Z,32.3
2022-08-11T10:59:04.065Z,33.3
2022-08-11T11:05:02.197Z,33.2
2022-08-11T11:11:02.223Z,31.6
2022-08-11T11:17:02.213Z,32.4
2022-08-11T11:23:02.207Z,31
2022-08-11T11:29:02.209Z,28.4
2022-08-11T11:35:02.227Z,27
2022-08-11T11:41:02.209Z,27.4
2022-08-11T11:47:02.263Z,27
2022-08-11T11:53:02.229Z,26.2
2022-08-11T11:59:02.215Z,27.2
2022-08-11T12:05:02.214Z,26.3
2022-08-11T12:11:02.244Z,26.2
2022-08-11T12:17:02.231Z,26.1
2022-08-11T12:23:02.238Z,27
2022-08-11T12:29:02.240Z,26.2
2022-08-11T12:35:02.238Z,25.8
2022-08-11T12:41:16.741Z,25.2
2022-08-11T12:47:02.236Z,25
2022-08-11T12:53:02.266Z,24.7
2022-08-11T12:59:02.243Z,24.5
2022-08-11T13:05:02.250Z,24.2
2022-08-11T13:11:02.301Z,24.4
2022-08-11T13:17:02.343Z,23.9
2022-08-11T13:23:02.289Z,25.2
2022-08-11T13:29:02.267Z,25.4
2022-08-11T13:35:02.258Z,25.3
2022-08-11T13:41:02.297Z,25.5
2022-08-11T13:47:02.270Z,25.3
2022-08-11T13:53:02.426Z,25.8
2022-08-11T13:59:02.264Z,25.2
2022-08-11T14:05:02.422Z,25
2022-08-11T14:11:02.287Z,26.1
2022-08-11T14:17:02.283Z,25.6
2022-08-11T14:23:02.297Z,25.7
2022-08-11T14:29:02.305Z,25.9
2022-08-11T14:35:02.283Z,25.8
2022-08-11T14:41:02.288Z,25.1
2022-08-11T14:47:02.314Z,25.8
2022-08-11T14:53:02.330Z,25.8
2022-08-11T14:59:02.327Z,25
2022-08-11T15:05:02.332Z,25.5
2022-08-11T15:11:02.344Z,25.6
2022-08-11T15:17:02.340Z,25.5
2022-08-11T15:23:02.330Z,25.2
2022-08-11T15:29:02.327Z,25.4
2022-08-11T15:35:03.933Z,25.3
2022-08-11T15:41:02.336Z,24.5
2022-08-11T15:47:02.339Z,24.3
2022-08-11T15:53:02.333Z,24.3
2022-08-11T15:59:33.634Z,24
2022-08-11T16:05:02.351Z,24.5
2022-08-11T16:11:02.333Z,24.6
2022-08-11T16:17:02.409Z,24.2
2022-08-11T16:23:02.846Z,24.2
2022-08-11T16:29:02.333Z,24.7
2022-08-11T16:35:02.350Z,24.2
2022-08-11T16:41:02.367Z,24.7
2022-08-11T16:47:02.340Z,24.5
2022-08-11T16:53:02.389Z,24.6
2022-08-11T16:59:02.353Z,24.5
2022-08-11T17:05:02.363Z,24.6
2022-08-11T17:11:04.032Z,24.5
2022-08-11T17:17:02.359Z,24.4
2022-08-11T17:23:02.356Z,23.9
2022-08-11T17:29:02.379Z,24
2022-08-11T17:35:02.368Z,23.9
2022-08-11T17:41:02.375Z,23.7
2022-08-11T17:47:05.961Z,23.6
2022-08-11T17:53:02.390Z,23.3
2022-08-11T17:59:02.373Z,22.9
2022-08-11T18:05:02.385Z,22.6
2022-08-11T18:11:02.376Z,22.9
2022-08-11T18:17:06.301Z,22.8
2022-08-11T18:23:02.460Z,22.5
2022-08-11T18:29:02.375Z,22.6
2022-08-11T18:35:02.383Z,22.3
2022-08-11T18:41:02.426Z,21.9
2022-08-11T18:47:02.412Z,22.1
2022-08-11T18:53:02.479Z,21.9
2022-08-11T18:59:02.419Z,22
2022-08-11T19:05:02.410Z,21.8
2022-08-11T19:11:02.423Z,21.5
2022-08-11T19:17:02.410Z,21.5
2022-08-11T19:23:02.429Z,21.2
2022-08-11T19:29:02.402Z,21.1
2022-08-11T19:35:02.403Z,20.9
2022-08-11T19:41:02.428Z,20.7
2022-08-11T19:47:02.640Z,20.6
2022-08-11T19:53:02.432Z,20.2
2022-08-11T19:59:02.437Z,20.1
2022-08-11T20:05:02.424Z,19.8
2022-08-11T20:11:02.433Z,19.4
2022-08-11T20:17:02.440Z,19
2022-08-11T20:23:02.450Z,18.6
2022-08-11T20:29:02.432Z,18.7
2022-08-11T20:35:02.459Z,18.7
2022-08-11T20:41:02.437Z,18.5
2022-08-11T20:47:02.446Z,18.2
2022-08-11T20:53:02.450Z,18
2022-08-11T20:59:19.024Z,18
2022-08-11T21:05:02.433Z,17.8
2022-08-11T21:11:02.451Z,17.5
2022-08-11T21:17:26.911Z,17.5
2022-08-11T21:23:05.323Z,17.4
2022-08-11T21:29:02.448Z,17.4
2022-08-11T21:35:02.457Z,17.2
2022-08-11T21:41:02.467Z,16.9
2022-08-11T21:47:02.676Z,16.8
2022-08-11T21:53:02.468Z,16.8
2022-08-11T21:59:07.054Z,16.8
2022-08-11T22:05:02.457Z,16.7
2022-08-11T22:11:02.475Z,16.6
2022-08-11T22:17:02.469Z,16.2
2022-08-11T22:23:02.464Z,16.2
2022-08-11T22:29:02.460Z,16.1
2022-08-11T22:35:02.462Z,16
2022-08-11T22:41:02.464Z,15.8
2022-08-11T22:47:02.477Z,15.6
2022-08-11T22:53:02.469Z,15.6
2022-08-11T22:59:02.493Z,15.5
2022-08-11T23:05:02.470Z,15.3
2022-08-11T23:11:02.490Z,15.4
2022-08-11T23:17:02.481Z,15.3
2022-08-11T23:23:02.482Z,15.2
2022-08-11T23:29:05.288Z,15
2022-08-11T23:35:39.254Z,15
2022-08-11T23:41:02.488Z,14.8
2022-08-11T23:47:02.549Z,14.6
2022-08-11T23:53:02.471Z,14.3
2022-08-11T23:59:02.485Z,14.1
